sensor_id;sensor_type;location;lat;lon;timestamp;P1;durP1;ratioP1;P2;durP2;ratioP2
73841;SDS011;62184;52.006;5.924;2024-01-16T00:01:33;19.40;;;18.30;;
73841;SDS011;62184;52.006;5.924;2024-01-16T00:03:59;19.23;;;18.17;;
73841;SDS011;62184;52.006;5.924;2024-01-16T00:06:26;18.97;;;17.97;;
73841;SDS011;62184;52.006;5.924;2024-01-16T00:08:52;19.80;;;18.70;;
73841;SDS011;62184;52.006;5.924;2024-01-16T00:11:19;19.30;;;18.27;;
73841;SDS011;62184;52.006;5.924;2024-01-16T00:13:45;20.08;;;18.98;;
73841;SDS011;62184;52.006;5.924;2024-01-16T00:16:11;20.08;;;18.98;;
73841;SDS011;62184;52.006;5.924;2024-01-16T00:18:40;19.67;;;18.58;;
73841;SDS011;62184;52.006;5.924;2024-01-16T00:21:07;19.20;;;18.20;;
73841;SDS011;62184;52.006;5.924;2024-01-16T00:23:33;20.27;;;19.17;;
73841;SDS011;62184;52.006;5.924;2024-01-16T00:26:00;19.55;;;18.45;;
73841;SDS011;62184;52.006;5.924;2024-01-16T00:28:26;19.95;;;18.85;;
73841;SDS011;62184;52.006;5.924;2024-01-16T00:30:53;19.70;;;18.60;;
73841;SDS011;62184;52.006;5.924;2024-01-16T00:33:19;20.25;;;19.15;;
73841;SDS011;62184;52.006;5.924;2024-01-16T00:35:48;20.45;;;19.35;;
73841;SDS011;62184;52.006;5.924;2024-01-16T00:38:14;19.60;;;18.50;;
73841;SDS011;62184;52.006;5.924;2024-01-16T00:40:41;19.40;;;18.40;;
73841;SDS011;62184;52.006;5.924;2024-01-16T00:43:08;20.00;;;18.90;;
73841;SDS011;62184;52.006;5.924;2024-01-16T00:45:34;19.35;;;18.35;;
73841;SDS011;62184;52.006;5.924;2024-01-16T00:48:00;19.70;;;18.65;;
73841;SDS011;62184;52.006;5.924;2024-01-16T00:50:27;19.75;;;18.65;;
73841;SDS011;62184;52.006;5.924;2024-01-16T00:52:56;19.70;;;18.60;;
73841;SDS011;62184;52.006;5.924;2024-01-16T00:55:22;20.40;;;19.30;;
73841;SDS011;62184;52.006;5.924;2024-01-16T00:57:49;19.60;;;18.60;;
73841;SDS011;62184;52.006;5.924;2024-01-16T01:00:15;20.70;;;19.60;;
73841;SDS011;62184;52.006;5.924;2024-01-16T01:02:42;19.60;;;18.50;;
73841;SDS011;62184;52.006;5.924;2024-01-16T01:05:09;19.90;;;18.80;;
73841;SDS011;62184;52.006;5.924;2024-01-16T01:07:35;20.20;;;19.10;;
73841;SDS011;62184;52.006;5.924;2024-01-16T01:10:05;19.87;;;18.77;;
73841;SDS011;62184;52.006;5.924;2024-01-16T01:12:32;20.20;;;19.10;;
73841;SDS011;62184;52.006;5.924;2024-01-16T01:14:58;19.50;;;18.48;;
73841;SDS011;62184;52.006;5.924;2024-01-16T01:17:24;19.40;;;18.40;;
73841;SDS011;62184;52.006;5.924;2024-01-16T01:19:51;19.50;;;18.40;;
73841;SDS011;62184;52.006;5.924;2024-01-16T01:22:17;19.92;;;18.83;;
73841;SDS011;62184;52.006;5.924;2024-01-16T01:24:45;19.90;;;18.80;;
73841;SDS011;62184;52.006;5.924;2024-01-16T01:27:14;20.08;;;18.98;;
73841;SDS011;62184;52.006;5.924;2024-01-16T01:29:40;19.50;;;18.50;;
73841;SDS011;62184;52.006;5.924;2024-01-16T01:32:07;21.03;;;19.83;;
73841;SDS011;62184;52.006;5.924;2024-01-16T01:34:33;19.17;;;18.17;;
73841;SDS011;62184;52.006;5.924;2024-01-16T01:36:59;19.55;;;18.55;;
73841;SDS011;62184;52.006;5.924;2024-01-16T01:39:26;20.08;;;18.98;;
73841;SDS011;62184;52.006;5.924;2024-01-16T01:41:52;19.98;;;18.88;;
73841;SDS011;62184;52.006;5.924;2024-01-16T01:44:23;19.83;;;18.77;;
73841;SDS011;62184;52.006;5.924;2024-01-16T01:46:49;19.83;;;18.80;;
73841;SDS011;62184;52.006;5.924;2024-01-16T01:49:16;20.17;;;19.07;;
73841;SDS011;62184;52.006;5.924;2024-01-16T01:51:43;19.00;;;18.00;;
73841;SDS011;62184;52.006;5.924;2024-01-16T01:54:10;20.00;;;18.90;;
73841;SDS011;62184;52.006;5.924;2024-01-16T01:56:38;19.47;;;18.47;;
73841;SDS011;62184;52.006;5.924;2024-01-16T01:59:09;20.15;;;19.05;;
73841;SDS011;62184;52.006;5.924;2024-01-16T02:01:40;19.80;;;18.70;;
73841;SDS011;62184;52.006;5.924;2024-01-16T02:04:08;19.80;;;18.70;;
73841;SDS011;62184;52.006;5.924;2024-01-16T02:06:36;20.42;;;19.33;;
73841;SDS011;62184;52.006;5.924;2024-01-16T02:09:02;19.70;;;18.70;;
73841;SDS011;62184;52.006;5.924;2024-01-16T02:11:29;20.05;;;18.95;;
73841;SDS011;62184;52.006;5.924;2024-01-16T02:13:55;19.80;;;18.70;;
73841;SDS011;62184;52.006;5.924;2024-01-16T02:16:22;19.85;;;18.75;;
73841;SDS011;62184;52.006;5.924;2024-01-16T02:18:52;19.95;;;18.85;;
73841;SDS011;62184;52.006;5.924;2024-01-16T02:21:20;19.88;;;18.77;;
73841;SDS011;62184;52.006;5.924;2024-01-16T02:23:51;19.30;;;18.30;;
73841;SDS011;62184;52.006;5.924;2024-01-16T02:26:17;19.50;;;18.50;;
73841;SDS011;62184;52.006;5.924;2024-01-16T02:28:44;19.70;;;18.70;;
73841;SDS011;62184;52.006;5.924;2024-01-16T02:31:12;19.92;;;18.83;;
73841;SDS011;62184;52.006;5.924;2024-01-16T02:33:38;19.20;;;18.20;;
73841;SDS011;62184;52.006;5.924;2024-01-16T02:36:05;19.40;;;18.40;;
73841;SDS011;62184;52.006;5.924;2024-01-16T02:38:32;19.60;;;18.60;;
73841;SDS011;62184;52.006;5.924;2024-01-16T02:41:01;20.08;;;18.98;;
73841;SDS011;62184;52.006;5.924;2024-01-16T02:43:27;20.27;;;19.17;;
73841;SDS011;62184;52.006;5.924;2024-01-16T02:45:54;19.70;;;18.70;;
73841;SDS011;62184;52.006;5.924;2024-01-16T02:48:20;19.75;;;18.75;;
73841;SDS011;62184;52.006;5.924;2024-01-16T02:50:47;19.38;;;18.38;;
73841;SDS011;62184;52.006;5.924;2024-01-16T02:53:13;19.70;;;18.70;;
73841;SDS011;62184;52.006;5.924;2024-01-16T02:55:39;19.65;;;18.65;;
73841;SDS011;62184;52.006;5.924;2024-01-16T02:58:09;20.10;;;19.00;;
73841;SDS011;62184;52.006;5.924;2024-01-16T03:00:35;20.17;;;19.08;;
73841;SDS011;62184;52.006;5.924;2024-01-16T03:03:02;19.30;;;18.30;;
73841;SDS011;62184;52.006;5.924;2024-01-16T03:05:28;19.30;;;18.30;;
73841;SDS011;62184;52.006;5.924;2024-01-16T03:07:55;19.88;;;18.80;;
73841;SDS011;62184;52.006;5.924;2024-01-16T03:10:21;19.60;;;18.60;;
73841;SDS011;62184;52.006;5.924;2024-01-16T03:12:47;20.05;;;18.95;;
73841;SDS011;62184;52.006;5.924;2024-01-16T03:15:16;19.95;;;18.88;;
73841;SDS011;62184;52.006;5.924;2024-01-16T03:17:43;19.95;;;18.92;;
73841;SDS011;62184;52.006;5.924;2024-01-16T03:20:10;19.80;;;18.80;;
73841;SDS011;62184;52.006;5.924;2024-01-16T03:22:37;20.05;;;18.95;;
73841;SDS011;62184;52.006;5.924;2024-01-16T03:25:04;19.20;;;18.20;;
73841;SDS011;62184;52.006;5.924;2024-01-16T03:27:31;19.40;;;18.40;;
73841;SDS011;62184;52.006;5.924;2024-01-16T03:29:58;20.48;;;19.38;;
73841;SDS011;62184;52.006;5.924;2024-01-16T03:32:27;20.13;;;19.02;;
73841;SDS011;62184;52.006;5.924;2024-01-16T03:34:53;19.63;;;18.63;;
73841;SDS011;62184;52.006;5.924;2024-01-16T03:37:19;20.23;;;19.13;;
73841;SDS011;62184;52.006;5.924;2024-01-16T03:39:47;19.25;;;18.25;;
73841;SDS011;62184;52.006;5.924;2024-01-16T03:42:13;19.80;;;18.80;;
73841;SDS011;62184;52.006;5.924;2024-01-16T03:44:40;19.48;;;18.48;;
73841;SDS011;62184;52.006;5.924;2024-01-16T03:47:06;20.27;;;19.17;;
73841;SDS011;62184;52.006;5.924;2024-01-16T03:49:35;20.35;;;19.25;;
73841;SDS011;62184;52.006;5.924;2024-01-16T03:52:02;20.13;;;19.02;;
73841;SDS011;62184;52.006;5.924;2024-01-16T03:54:29;20.27;;;19.17;;
73841;SDS011;62184;52.006;5.924;2024-01-16T03:56:55;20.17;;;19.10;;
73841;SDS011;62184;52.006;5.924;2024-01-16T03:59:22;19.98;;;18.88;;
73841;SDS011;62184;52.006;5.924;2024-01-16T04:01:48;19.90;;;18.90;;
73841;SDS011;62184;52.006;5.924;2024-01-16T04:04:15;20.17;;;19.08;;
73841;SDS011;62184;52.006;5.924;2024-01-16T04:06:45;20.00;;;18.90;;
73841;SDS011;62184;52.006;5.924;2024-01-16T04:09:11;19.47;;;18.47;;
73841;SDS011;62184;52.006;5.924;2024-01-16T04:11:38;19.05;;;18.05;;
73841;SDS011;62184;52.006;5.924;2024-01-16T04:14:04;19.95;;;18.95;;
73841;SDS011;62184;52.006;5.924;2024-01-16T04:16:31;19.73;;;18.73;;
73841;SDS011;62184;52.006;5.924;2024-01-16T04:18:57;19.73;;;18.73;;
73841;SDS011;62184;52.006;5.924;2024-01-16T04:21:24;19.42;;;18.42;;
73841;SDS011;62184;52.006;5.924;2024-01-16T04:23:53;20.20;;;19.10;;
73841;SDS011;62184;52.006;5.924;2024-01-16T04:26:20;19.48;;;18.48;;
73841;SDS011;62184;52.006;5.924;2024-01-16T04:28:47;19.85;;;18.85;;
73841;SDS011;62184;52.006;5.924;2024-01-16T04:31:14;19.48;;;18.48;;
73841;SDS011;62184;52.006;5.924;2024-01-16T04:33:40;19.20;;;18.20;;
73841;SDS011;62184;52.006;5.924;2024-01-16T04:36:07;19.20;;;18.20;;
73841;SDS011;62184;52.006;5.924;2024-01-16T04:38:33;18.52;;;17.52;;
73841;SDS011;62184;52.006;5.924;2024-01-16T04:41:03;18.43;;;17.43;;
73841;SDS011;62184;52.006;5.924;2024-01-16T04:43:30;19.20;;;18.20;;
73841;SDS011;62184;52.006;5.924;2024-01-16T04:45:56;18.67;;;17.67;;
73841;SDS011;62184;52.006;5.924;2024-01-16T04:48:23;18.83;;;17.83;;
73841;SDS011;62184;52.006;5.924;2024-01-16T04:50:49;18.98;;;17.98;;
73841;SDS011;62184;52.006;5.924;2024-01-16T04:53:16;18.70;;;17.70;;
73841;SDS011;62184;52.006;5.924;2024-01-16T04:55:42;18.73;;;17.73;;
73841;SDS011;62184;52.006;5.924;2024-01-16T04:58:11;17.98;;;16.98;;
73841;SDS011;62184;52.006;5.924;2024-01-16T05:00:38;18.20;;;17.20;;
73841;SDS011;62184;52.006;5.924;2024-01-16T05:03:04;18.40;;;17.40;;
73841;SDS011;62184;52.006;5.924;2024-01-16T05:05:31;19.38;;;18.38;;
73841;SDS011;62184;52.006;5.924;2024-01-16T05:08:00;19.70;;;18.70;;
73841;SDS011;62184;52.006;5.924;2024-01-16T05:10:26;20.02;;;18.92;;
73841;SDS011;62184;52.006;5.924;2024-01-16T05:12:53;18.63;;;17.63;;
73841;SDS011;62184;52.006;5.924;2024-01-16T05:15:22;18.75;;;17.75;;
73841;SDS011;62184;52.006;5.924;2024-01-16T05:17:48;19.63;;;18.53;;
73841;SDS011;62184;52.006;5.924;2024-01-16T05:20:15;19.35;;;18.35;;
73841;SDS011;62184;52.006;5.924;2024-01-16T05:22:41;21.77;;;20.67;;
73841;SDS011;62184;52.006;5.924;2024-01-16T05:25:08;20.33;;;19.23;;
73841;SDS011;62184;52.006;5.924;2024-01-16T05:27:35;20.45;;;19.35;;
73841;SDS011;62184;52.006;5.924;2024-01-16T05:30:01;19.67;;;18.58;;
73841;SDS011;62184;52.006;5.924;2024-01-16T05:32:30;20.20;;;19.10;;
73841;SDS011;62184;52.006;5.924;2024-01-16T05:34:57;20.17;;;19.08;;
73841;SDS011;62184;52.006;5.924;2024-01-16T05:37:23;19.75;;;18.65;;
73841;SDS011;62184;52.006;5.924;2024-01-16T05:39:50;20.33;;;19.23;;
73841;SDS011;62184;52.006;5.924;2024-01-16T05:42:16;19.88;;;18.77;;
73841;SDS011;62184;52.006;5.924;2024-01-16T05:44:42;20.50;;;19.40;;
73841;SDS011;62184;52.006;5.924;2024-01-16T05:47:09;20.00;;;18.90;;
73841;SDS011;62184;52.006;5.924;2024-01-16T05:49:38;20.02;;;18.92;;
73841;SDS011;62184;52.006;5.924;2024-01-16T05:52:04;19.90;;;18.80;;
73841;SDS011;62184;52.006;5.924;2024-01-16T05:54:31;19.65;;;18.55;;
73841;SDS011;62184;52.006;5.924;2024-01-16T05:56:58;19.45;;;18.35;;
73841;SDS011;62184;52.006;5.924;2024-01-16T05:59:24;18.77;;;17.77;;
73841;SDS011;62184;52.006;5.924;2024-01-16T06:01:51;18.40;;;17.40;;
73841;SDS011;62184;52.006;5.924;2024-01-16T06:04:17;18.20;;;17.20;;
73841;SDS011;62184;52.006;5.924;2024-01-16T06:06:46;18.90;;;17.90;;
73841;SDS011;62184;52.006;5.924;2024-01-16T06:09:12;17.70;;;16.70;;
73841;SDS011;62184;52.006;5.924;2024-01-16T06:11:39;18.05;;;17.05;;
73841;SDS011;62184;52.006;5.924;2024-01-16T06:14:06;18.33;;;17.33;;
73841;SDS011;62184;52.006;5.924;2024-01-16T06:16:32;18.90;;;17.80;;
73841;SDS011;62184;52.006;5.924;2024-01-16T06:18:59;17.92;;;16.95;;
73841;SDS011;62184;52.006;5.924;2024-01-16T06:21:25;17.50;;;16.60;;
73841;SDS011;62184;52.006;5.924;2024-01-16T06:23:54;18.00;;;17.00;;
73841;SDS011;62184;52.006;5.924;2024-01-16T06:26:21;18.58;;;17.58;;
73841;SDS011;62184;52.006;5.924;2024-01-16T06:28:47;16.95;;;16.05;;
73841;SDS011;62184;52.006;5.924;2024-01-16T06:31:13;18.25;;;17.25;;
73841;SDS011;62184;52.006;5.924;2024-01-16T06:33:42;16.33;;;15.43;;
73841;SDS011;62184;52.006;5.924;2024-01-16T06:36:08;17.38;;;16.48;;
73841;SDS011;62184;52.006;5.924;2024-01-16T06:38:35;18.25;;;17.25;;
73841;SDS011;62184;52.006;5.924;2024-01-16T06:41:06;16.20;;;15.30;;
73841;SDS011;62184;52.006;5.924;2024-01-16T06:43:33;16.30;;;15.40;;
73841;SDS011;62184;52.006;5.924;2024-01-16T06:45:59;16.10;;;15.20;;
73841;SDS011;62184;52.006;5.924;2024-01-16T06:48:26;16.30;;;15.40;;
73841;SDS011;62184;52.006;5.924;2024-01-16T06:50:52;17.67;;;16.67;;
73841;SDS011;62184;52.006;5.924;2024-01-16T06:53:19;17.02;;;16.13;;
73841;SDS011;62184;52.006;5.924;2024-01-16T06:55:45;17.15;;;16.25;;
73841;SDS011;62184;52.006;5.924;2024-01-16T06:58:14;16.27;;;15.38;;
73841;SDS011;62184;52.006;5.924;2024-01-16T07:00:40;16.75;;;15.85;;
73841;SDS011;62184;52.006;5.924;2024-01-16T07:03:07;17.27;;;16.38;;
73841;SDS011;62184;52.006;5.924;2024-01-16T07:05:33;17.75;;;16.85;;
73841;SDS011;62184;52.006;5.924;2024-01-16T07:08:00;17.33;;;16.42;;
73841;SDS011;62184;52.006;5.924;2024-01-16T07:10:26;16.80;;;15.90;;
73841;SDS011;62184;52.006;5.924;2024-01-16T07:12:52;16.88;;;15.98;;
73841;SDS011;62184;52.006;5.924;2024-01-16T07:15:22;16.95;;;16.05;;
73841;SDS011;62184;52.006;5.924;2024-01-16T07:17:48;19.17;;;18.17;;
73841;SDS011;62184;52.006;5.924;2024-01-16T07:20:14;19.08;;;18.08;;
73841;SDS011;62184;52.006;5.924;2024-01-16T07:22:41;18.92;;;17.92;;
73841;SDS011;62184;52.006;5.924;2024-01-16T07:25:07;18.92;;;17.92;;
73841;SDS011;62184;52.006;5.924;2024-01-16T07:27:34;18.50;;;17.50;;
73841;SDS011;62184;52.006;5.924;2024-01-16T07:30:01;19.33;;;18.33;;
73841;SDS011;62184;52.006;5.924;2024-01-16T07:32:34;18.90;;;17.90;;
73841;SDS011;62184;52.006;5.924;2024-01-16T07:35:01;20.17;;;19.08;;
73841;SDS011;62184;52.006;5.924;2024-01-16T07:37:28;19.50;;;18.50;;
73841;SDS011;62184;52.006;5.924;2024-01-16T07:39:55;18.75;;;17.75;;
73841;SDS011;62184;52.006;5.924;2024-01-16T07:42:21;21.20;;;20.10;;
73841;SDS011;62184;52.006;5.924;2024-01-16T07:44:48;20.15;;;19.13;;
73841;SDS011;62184;52.006;5.924;2024-01-16T07:47:14;17.90;;;16.90;;
73841;SDS011;62184;52.006;5.924;2024-01-16T07:49:43;17.23;;;16.33;;
73841;SDS011;62184;52.006;5.924;2024-01-16T07:52:10;17.67;;;16.67;;
73841;SDS011;62184;52.006;5.924;2024-01-16T07:54:37;17.42;;;16.48;;
73841;SDS011;62184;52.006;5.924;2024-01-16T07:57:04;19.00;;;18.00;;
73841;SDS011;62184;52.006;5.924;2024-01-16T07:59:30;18.17;;;17.17;;
73841;SDS011;62184;52.006;5.924;2024-01-16T08:01:57;18.05;;;17.05;;
73841;SDS011;62184;52.006;5.924;2024-01-16T08:04:23;17.70;;;16.70;;
73841;SDS011;62184;52.006;5.924;2024-01-16T08:06:52;19.00;;;18.00;;
73841;SDS011;62184;52.006;5.924;2024-01-16T08:09:18;18.10;;;17.10;;
73841;SDS011;62184;52.006;5.924;2024-01-16T08:11:47;18.30;;;17.30;;
73841;SDS011;62184;52.006;5.924;2024-01-16T08:14:16;18.35;;;17.35;;
73841;SDS011;62184;52.006;5.924;2024-01-16T08:16:43;18.10;;;17.10;;
73841;SDS011;62184;52.006;5.924;2024-01-16T08:19:09;17.50;;;16.60;;
73841;SDS011;62184;52.006;5.924;2024-01-16T08:21:37;17.30;;;16.40;;
73841;SDS011;62184;52.006;5.924;2024-01-16T08:24:06;17.58;;;16.67;;
73841;SDS011;62184;52.006;5.924;2024-01-16T08:26:32;17.58;;;16.65;;
73841;SDS011;62184;52.006;5.924;2024-01-16T08:28:59;17.85;;;16.85;;
73841;SDS011;62184;52.006;5.924;2024-01-16T08:31:25;17.80;;;16.80;;
73841;SDS011;62184;52.006;5.924;2024-01-16T08:33:52;17.08;;;16.17;;
73841;SDS011;62184;52.006;5.924;2024-01-16T08:36:25;17.27;;;16.38;;
73841;SDS011;62184;52.006;5.924;2024-01-16T08:38:51;17.65;;;16.65;;
73841;SDS011;62184;52.006;5.924;2024-01-16T08:41:20;17.20;;;16.30;;
73841;SDS011;62184;52.006;5.924;2024-01-16T08:43:47;15.95;;;15.05;;
73841;SDS011;62184;52.006;5.924;2024-01-16T08:46:13;16.25;;;15.35;;
73841;SDS011;62184;52.006;5.924;2024-01-16T08:48:39;15.88;;;14.98;;
73841;SDS011;62184;52.006;5.924;2024-01-16T08:51:07;16.83;;;15.93;;
73841;SDS011;62184;52.006;5.924;2024-01-16T08:53:36;17.00;;;16.10;;
73841;SDS011;62184;52.006;5.924;2024-01-16T08:56:03;17.00;;;16.10;;
73841;SDS011;62184;52.006;5.924;2024-01-16T08:58:32;16.70;;;15.80;;
73841;SDS011;62184;52.006;5.924;2024-01-16T09:00:59;16.00;;;15.10;;
73841;SDS011;62184;52.006;5.924;2024-01-16T09:03:26;16.67;;;15.77;;
73841;SDS011;62184;52.006;5.924;2024-01-16T09:05:53;16.60;;;15.70;;
73841;SDS011;62184;52.006;5.924;2024-01-16T09:08:19;16.73;;;15.82;;
73841;SDS011;62184;52.006;5.924;2024-01-16T09:10:45;16.20;;;15.30;;
73841;SDS011;62184;52.006;5.924;2024-01-16T09:13:12;16.98;;;16.08;;
73841;SDS011;62184;52.006;5.924;2024-01-16T09:15:41;16.38;;;15.48;;
73841;SDS011;62184;52.006;5.924;2024-01-16T09:18:07;16.77;;;15.88;;
73841;SDS011;62184;52.006;5.924;2024-01-16T09:20:34;16.48;;;15.57;;
73841;SDS011;62184;52.006;5.924;2024-01-16T09:23:00;16.27;;;15.38;;
73841;SDS011;62184;52.006;5.924;2024-01-16T09:25:26;17.77;;;16.77;;
73841;SDS011;62184;52.006;5.924;2024-01-16T09:27:53;17.60;;;16.63;;
73841;SDS011;62184;52.006;5.924;2024-01-16T09:30:19;17.23;;;16.33;;
73841;SDS011;62184;52.006;5.924;2024-01-16T09:32:48;17.50;;;16.60;;
73841;SDS011;62184;52.006;5.924;2024-01-16T09:35:15;18.35;;;17.35;;
73841;SDS011;62184;52.006;5.924;2024-01-16T09:37:41;18.35;;;17.35;;
73841;SDS011;62184;52.006;5.924;2024-01-16T09:40:08;17.85;;;16.90;;
73841;SDS011;62184;52.006;5.924;2024-01-16T09:42:36;18.60;;;17.60;;
73841;SDS011;62184;52.006;5.924;2024-01-16T09:45:03;18.35;;;17.35;;
73841;SDS011;62184;52.006;5.924;2024-01-16T09:47:31;18.30;;;17.30;;
73841;SDS011;62184;52.006;5.924;2024-01-16T09:50:02;17.63;;;16.73;;
73841;SDS011;62184;52.006;5.924;2024-01-16T09:52:30;18.10;;;17.10;;
73841;SDS011;62184;52.006;5.924;2024-01-16T09:54:56;18.30;;;17.30;;
73841;SDS011;62184;52.006;5.924;2024-01-16T09:57:24;18.02;;;17.02;;
73841;SDS011;62184;52.006;5.924;2024-01-16T09:59:53;18.50;;;17.50;;
73841;SDS011;62184;52.006;5.924;2024-01-16T10:02:23;18.10;;;17.10;;
73841;SDS011;62184;52.006;5.924;2024-01-16T10:04:50;18.25;;;17.25;;
73841;SDS011;62184;52.006;5.924;2024-01-16T10:07:19;17.00;;;16.10;;
73841;SDS011;62184;52.006;5.924;2024-01-16T10:09:47;17.10;;;16.20;;
73841;SDS011;62184;52.006;5.924;2024-01-16T10:12:13;17.70;;;16.80;;
73841;SDS011;62184;52.006;5.924;2024-01-16T10:14:40;17.85;;;16.85;;
73841;SDS011;62184;52.006;5.924;2024-01-16T10:17:08;17.40;;;16.45;;
73841;SDS011;62184;52.006;5.924;2024-01-16T10:19:47;18.13;;;16.92;;
73841;SDS011;62184;52.006;5.924;2024-01-16T10:22:21;17.77;;;16.80;;
73841;SDS011;62184;52.006;5.924;2024-01-16T10:24:49;17.50;;;16.60;;
73841;SDS011;62184;52.006;5.924;2024-01-16T10:27:16;17.43;;;16.53;;
73841;SDS011;62184;52.006;5.924;2024-01-16T10:29:46;18.08;;;17.08;;
73841;SDS011;62184;52.006;5.924;2024-01-16T10:32:26;18.35;;;17.35;;
73841;SDS011;62184;52.006;5.924;2024-01-16T10:35:00;18.77;;;17.77;;
73841;SDS011;62184;52.006;5.924;2024-01-16T10:37:40;19.02;;;18.02;;
73841;SDS011;62184;52.006;5.924;2024-01-16T10:40:07;17.88;;;16.88;;
73841;SDS011;62184;52.006;5.924;2024-01-16T10:42:35;18.20;;;17.20;;
73841;SDS011;62184;52.006;5.924;2024-01-16T10:45:02;17.70;;;16.70;;
73841;SDS011;62184;52.006;5.924;2024-01-16T10:47:30;18.13;;;17.13;;
73841;SDS011;62184;52.006;5.924;2024-01-16T10:49:57;17.85;;;16.85;;
73841;SDS011;62184;52.006;5.924;2024-01-16T10:52:24;18.30;;;17.30;;
73841;SDS011;62184;52.006;5.924;2024-01-16T10:54:56;17.48;;;16.58;;
73841;SDS011;62184;52.006;5.924;2024-01-16T10:57:28;17.50;;;16.60;;
73841;SDS011;62184;52.006;5.924;2024-01-16T11:00:00;17.42;;;16.48;;
73841;SDS011;62184;52.006;5.924;2024-01-16T11:02:31;16.60;;;15.70;;
73841;SDS011;62184;52.006;5.924;2024-01-16T11:05:09;17.80;;;16.90;;
73841;SDS011;62184;52.006;5.924;2024-01-16T11:07:37;17.50;;;16.60;;
73841;SDS011;62184;52.006;5.924;2024-01-16T11:10:10;17.50;;;16.60;;
73841;SDS011;62184;52.006;5.924;2024-01-16T11:12:37;16.52;;;15.63;;
73841;SDS011;62184;52.006;5.924;2024-01-16T11:15:07;17.00;;;16.10;;
73841;SDS011;62184;52.006;5.924;2024-01-16T11:17:36;17.20;;;16.30;;
73841;SDS011;62184;52.006;5.924;2024-01-16T11:20:04;16.55;;;15.65;;
73841;SDS011;62184;52.006;5.924;2024-01-16T11:22:34;17.13;;;16.23;;
73841;SDS011;62184;52.006;5.924;2024-01-16T11:25:10;17.00;;;16.10;;
73841;SDS011;62184;52.006;5.924;2024-01-16T11:27:39;17.00;;;16.00;;
73841;SDS011;62184;52.006;5.924;2024-01-16T11:30:07;16.77;;;15.80;;
73841;SDS011;62184;52.006;5.924;2024-01-16T11:32:36;17.50;;;16.50;;
73841;SDS011;62184;52.006;5.924;2024-01-16T11:35:05;17.02;;;16.02;;
73841;SDS011;62184;52.006;5.924;2024-01-16T11:37:33;17.50;;;16.50;;
73841;SDS011;62184;52.006;5.924;2024-01-16T11:42:52;17.30;;;16.30;;
73841;SDS011;62184;52.006;5.924;2024-01-16T11:48:14;17.73;;;16.73;;
73841;SDS011;62184;52.006;5.924;2024-01-16T11:50:42;18.20;;;17.20;;
73841;SDS011;62184;52.006;5.924;2024-01-16T11:53:09;17.80;;;16.80;;
73841;SDS011;62184;52.006;5.924;2024-01-16T11:55:42;17.50;;;16.40;;
73841;SDS011;62184;52.006;5.924;2024-01-16T11:58:41;17.65;;;16.65;;
73841;SDS011;62184;52.006;5.924;2024-01-16T12:01:23;18.10;;;17.10;;
73841;SDS011;62184;52.006;5.924;2024-01-16T12:04:01;17.42;;;16.33;;
73841;SDS011;62184;52.006;5.924;2024-01-16T12:06:28;17.38;;;16.38;;
73841;SDS011;62184;52.006;5.924;2024-01-16T12:08:54;17.60;;;16.50;;
73841;SDS011;62184;52.006;5.924;2024-01-16T12:11:40;16.77;;;15.80;;
73841;SDS011;62184;52.006;5.924;2024-01-16T12:14:07;16.60;;;15.60;;
73841;SDS011;62184;52.006;5.924;2024-01-16T12:16:35;17.37;;;16.37;;
73841;SDS011;62184;52.006;5.924;2024-01-16T12:19:05;17.00;;;16.00;;
73841;SDS011;62184;52.006;5.924;2024-01-16T12:21:32;15.70;;;14.80;;
73841;SDS011;62184;52.006;5.924;2024-01-16T12:24:01;15.45;;;14.55;;
73841;SDS011;62184;52.006;5.924;2024-01-16T12:26:27;15.67;;;14.77;;
73841;SDS011;62184;52.006;5.924;2024-01-16T12:28:57;15.82;;;14.93;;
73841;SDS011;62184;52.006;5.924;2024-01-16T12:31:24;16.10;;;15.10;;
73841;SDS011;62184;52.006;5.924;2024-01-16T12:33:51;16.60;;;15.70;;
73841;SDS011;62184;52.006;5.924;2024-01-16T12:36:18;16.48;;;15.57;;
73841;SDS011;62184;52.006;5.924;2024-01-16T12:38:44;15.63;;;14.73;;
73841;SDS011;62184;52.006;5.924;2024-01-16T12:41:20;16.02;;;15.13;;
73841;SDS011;62184;52.006;5.924;2024-01-16T12:43:48;15.85;;;14.95;;
73841;SDS011;62184;52.006;5.924;2024-01-16T12:46:19;16.97;;;16.07;;
73841;SDS011;62184;52.006;5.924;2024-01-16T12:48:45;16.27;;;15.37;;
73841;SDS011;62184;52.006;5.924;2024-01-16T12:51:13;16.55;;;15.65;;
73841;SDS011;62184;52.006;5.924;2024-01-16T12:53:47;15.82;;;14.93;;
73841;SDS011;62184;52.006;5.924;2024-01-16T12:56:17;16.42;;;15.52;;
73841;SDS011;62184;52.006;5.924;2024-01-16T12:58:45;16.50;;;15.60;;
73841;SDS011;62184;52.006;5.924;2024-01-16T13:01:24;16.67;;;15.77;;
73841;SDS011;62184;52.006;5.924;2024-01-16T13:03:52;17.15;;;16.23;;
73841;SDS011;62184;52.006;5.924;2024-01-16T13:06:19;17.08;;;16.08;;
73841;SDS011;62184;52.006;5.924;2024-01-16T13:08:47;17.00;;;16.10;;
73841;SDS011;62184;52.006;5.924;2024-01-16T13:11:14;16.80;;;15.90;;
73841;SDS011;62184;52.006;5.924;2024-01-16T13:13:42;16.75;;;15.85;;
73841;SDS011;62184;52.006;5.924;2024-01-16T13:16:09;16.80;;;15.90;;
73841;SDS011;62184;52.006;5.924;2024-01-16T13:18:38;16.90;;;16.00;;
73841;SDS011;62184;52.006;5.924;2024-01-16T13:21:04;17.23;;;16.33;;
73841;SDS011;62184;52.006;5.924;2024-01-16T13:23:31;17.83;;;16.83;;
73841;SDS011;62184;52.006;5.924;2024-01-16T13:25:58;17.02;;;16.13;;
73841;SDS011;62184;52.006;5.924;2024-01-16T13:28:24;17.10;;;16.20;;
73841;SDS011;62184;52.006;5.924;2024-01-16T13:30:51;18.20;;;17.20;;
73841;SDS011;62184;52.006;5.924;2024-01-16T13:33:18;17.50;;;16.50;;
73841;SDS011;62184;52.006;5.924;2024-01-16T13:35:49;17.88;;;16.88;;
73841;SDS011;62184;52.006;5.924;2024-01-16T13:38:15;18.10;;;17.00;;
73841;SDS011;62184;52.006;5.924;2024-01-16T13:40:42;17.20;;;16.30;;
73841;SDS011;62184;52.006;5.924;2024-01-16T13:43:08;17.80;;;16.80;;
73841;SDS011;62184;52.006;5.924;2024-01-16T13:45:35;18.08;;;17.08;;
73841;SDS011;62184;52.006;5.924;2024-01-16T13:48:02;17.60;;;16.60;;
73841;SDS011;62184;52.006;5.924;2024-01-16T13:50:30;17.42;;;16.42;;
73841;SDS011;62184;52.006;5.924;2024-01-16T13:53:00;17.58;;;16.58;;
73841;SDS011;62184;52.006;5.924;2024-01-16T13:55:27;16.95;;;16.05;;
73841;SDS011;62184;52.006;5.924;2024-01-16T13:57:54;16.88;;;15.95;;
73841;SDS011;62184;52.006;5.924;2024-01-16T14:00:21;16.23;;;15.32;;
73841;SDS011;62184;52.006;5.924;2024-01-16T14:02:47;16.60;;;15.70;;
73841;SDS011;62184;52.006;5.924;2024-01-16T14:05:15;16.33;;;15.43;;
73841;SDS011;62184;52.006;5.924;2024-01-16T14:07:44;16.90;;;16.00;;
73841;SDS011;62184;52.006;5.924;2024-01-16T14:10:15;17.02;;;16.02;;
73841;SDS011;62184;52.006;5.924;2024-01-16T14:12:43;16.90;;;16.00;;
73841;SDS011;62184;52.006;5.924;2024-01-16T14:15:12;17.48;;;16.48;;
73841;SDS011;62184;52.006;5.924;2024-01-16T14:17:40;16.95;;;16.05;;
73841;SDS011;62184;52.006;5.924;2024-01-16T14:20:07;16.73;;;15.80;;
73841;SDS011;62184;52.006;5.924;2024-01-16T14:22:36;16.52;;;15.63;;
73841;SDS011;62184;52.006;5.924;2024-01-16T14:25:04;15.90;;;15.00;;
73841;SDS011;62184;52.006;5.924;2024-01-16T14:27:35;16.77;;;15.88;;
73841;SDS011;62184;52.006;5.924;2024-01-16T14:30:01;16.00;;;15.10;;